sensor_id;sensor_type;location;lat;lon;timestamp;pressure;altitude;pressure_sealevel;temperature;humidity
77279;BME280;66332;50.436;15.378;2023-03-14T00:00:09;96687.03;;;7.40;77.13
77279;BME280;66332;50.436;15.378;2023-03-14T00:05:11;96708.34;;;7.37;76.19
77279;BME280;66332;50.436;15.378;2023-03-14T00:09:52;96754.66;;;7.49;76.69
77279;BME280;66332;50.436;15.378;2023-03-14T00:14:33;96769.31;;;7.50;76.90
77279;BME280;66332;50.436;15.378;2023-03-14T00:19:14;96730.78;;;7.18;78.77
77279;BME280;66332;50.436;15.378;2023-03-14T00:23:55;96676.41;;;6.93;80.49
77279;BME280;66332;50.436;15.378;2023-03-14T00:28:36;96617.41;;;6.64;82.99
77279;BME280;66332;50.436;15.378;2023-03-14T00:33:17;96690.53;;;6.64;83.14
77279;BME280;66332;50.436;15.378;2023-03-14T00:37:58;96700.09;;;6.50;84.57
77279;BME280;66332;50.436;15.378;2023-03-14T00:42:38;96691.38;;;6.36;84.35
77279;BME280;66332;50.436;15.378;2023-03-14T00:47:19;96717.50;;;6.71;84.40
77279;BME280;66332;50.436;15.378;2023-03-14T00:52:00;96720.69;;;6.66;85.07
77279;BME280;66332;50.436;15.378;2023-03-14T00:56:41;96743.03;;;6.48;86.50
77279;BME280;66332;50.436;15.378;2023-03-14T01:01:23;96710.78;;;6.27;86.69
77279;BME280;66332;50.436;15.378;2023-03-14T01:06:11;96692.91;;;6.24;86.82
77279;BME280;66332;50.436;15.378;2023-03-14T01:10:52;96647.88;;;6.15;87.49
77279;BME280;66332;50.436;15.378;2023-03-14T01:15:34;96636.66;;;5.93;88.74
77279;BME280;66332;50.436;15.378;2023-03-14T01:20:16;96656.38;;;5.81;88.71
77279;BME280;66332;50.436;15.378;2023-03-14T01:24:57;96654.66;;;5.88;88.77
77279;BME280;66332;50.436;15.378;2023-03-14T01:29:38;96631.19;;;5.88;88.53
77279;BME280;66332;50.436;15.378;2023-03-14T01:34:19;96590.56;;;6.01;88.19
77279;BME280;66332;50.436;15.378;2023-03-14T01:39:00;96571.50;;;6.00;88.01
77279;BME280;66332;50.436;15.378;2023-03-14T01:43:40;96545.81;;;5.75;89.34
77279;BME280;66332;50.436;15.378;2023-03-14T01:48:21;96520.13;;;6.01;87.77
77279;BME280;66332;50.436;15.378;2023-03-14T01:53:02;96516.53;;;6.08;87.56
77279;BME280;66332;50.436;15.378;2023-03-14T01:58:04;96524.25;;;6.23;86.13
77279;BME280;66332;50.436;15.378;2023-03-14T02:02:48;96528.00;;;6.14;86.34
77279;BME280;66332;50.436;15.378;2023-03-14T02:07:44;96520.66;;;6.24;85.29
77279;BME280;66332;50.436;15.378;2023-03-14T02:12:27;96429.69;;;6.21;85.86
77279;BME280;66332;50.436;15.378;2023-03-14T02:17:08;96474.66;;;6.23;86.57
77279;BME280;66332;50.436;15.378;2023-03-14T02:21:55;96523.66;;;6.21;86.19
77279;BME280;66332;50.436;15.378;2023-03-14T02:26:41;96505.28;;;6.49;84.46
77279;BME280;66332;50.436;15.378;2023-03-14T02:31:24;96478.84;;;6.79;83.00
77279;BME280;66332;50.436;15.378;2023-03-14T02:36:07;96540.50;;;6.66;85.49
77279;BME280;66332;50.436;15.378;2023-03-14T02:40:50;96521.38;;;6.66;86.01
77279;BME280;66332;50.436;15.378;2023-03-14T02:45:38;96523.88;;;6.94;81.99
77279;BME280;66332;50.436;15.378;2023-03-14T02:50:23;96542.34;;;6.93;82.82
77279;BME280;66332;50.436;15.378;2023-03-14T02:55:05;96527.06;;;6.89;83.30
77279;BME280;66332;50.436;15.378;2023-03-14T02:59:46;96520.03;;;6.90;84.29
77279;BME280;66332;50.436;15.378;2023-03-14T03:04:27;96516.75;;;6.61;85.71
77279;BME280;66332;50.436;15.378;2023-03-14T03:09:08;96543.41;;;6.43;86.86
77279;BME280;66332;50.436;15.378;2023-03-14T03:13:49;96548.50;;;6.58;86.63
77279;BME280;66332;50.436;15.378;2023-03-14T03:18:30;96511.84;;;6.38;86.88
77279;BME280;66332;50.436;15.378;2023-03-14T03:23:12;96469.81;;;6.20;87.34
77279;BME280;66332;50.436;15.378;2023-03-14T03:27:53;96472.03;;;6.23;87.58
77279;BME280;66332;50.436;15.378;2023-03-14T03:32:34;96460.41;;;6.26;87.47
77279;BME280;66332;50.436;15.378;2023-03-14T03:37:15;96470.06;;;6.25;87.51
77279;BME280;66332;50.436;15.378;2023-03-14T03:41:56;96443.53;;;6.22;87.09
77279;BME280;66332;50.436;15.378;2023-03-14T03:46:37;96439.69;;;6.17;87.68
77279;BME280;66332;50.436;15.378;2023-03-14T03:51:17;96463.41;;;6.16;87.01
77279;BME280;66332;50.436;15.378;2023-03-14T03:55:58;96466.81;;;6.16;86.50
77279;BME280;66332;50.436;15.378;2023-03-14T04:00:40;96462.78;;;6.14;87.15
77279;BME280;66332;50.436;15.378;2023-03-14T04:05:21;96439.09;;;6.09;86.44
77279;BME280;66332;50.436;15.378;2023-03-14T04:10:02;96445.09;;;6.03;87.14
77279;BME280;66332;50.436;15.378;2023-03-14T04:14:43;96435.72;;;5.80;87.62
77279;BME280;66332;50.436;15.378;2023-03-14T04:19:24;96436.19;;;5.90;87.08
77279;BME280;66332;50.436;15.378;2023-03-14T04:24:05;96427.09;;;5.80;87.78
77279;BME280;66332;50.436;15.378;2023-03-14T04:28:45;96441.25;;;5.98;86.63
77279;BME280;66332;50.436;15.378;2023-03-14T04:33:26;96438.25;;;6.02;86.09
77279;BME280;66332;50.436;15.378;2023-03-14T04:38:07;96446.16;;;6.22;84.78
77279;BME280;66332;50.436;15.378;2023-03-14T04:42:48;96449.28;;;6.04;85.85
77279;BME280;66332;50.436;15.378;2023-03-14T04:47:29;96448.66;;;5.95;86.39
77279;BME280;66332;50.436;15.378;2023-03-14T04:52:10;96432.75;;;5.90;86.36
77279;BME280;66332;50.436;15.378;2023-03-14T04:56:51;96451.88;;;5.97;85.63
77279;BME280;66332;50.436;15.378;2023-03-14T05:01:32;96442.72;;;5.80;86.22
77279;BME280;66332;50.436;15.378;2023-03-14T05:06:13;96451.88;;;5.69;87.17
77279;BME280;66332;50.436;15.378;2023-03-14T05:10:54;96422.53;;;5.53;86.79
77279;BME280;66332;50.436;15.378;2023-03-14T05:15:36;96418.75;;;5.63;86.91
77279;BME280;66332;50.436;15.378;2023-03-14T05:20:16;96423.16;;;5.56;87.20
77279;BME280;66332;50.436;15.378;2023-03-14T05:24:57;96433.25;;;5.72;86.61
77279;BME280;66332;50.436;15.378;2023-03-14T05:29:39;96443.66;;;5.65;86.24
77279;BME280;66332;50.436;15.378;2023-03-14T05:34:20;96448.88;;;5.65;86.74
77279;BME280;66332;50.436;15.378;2023-03-14T05:39:01;96424.38;;;5.60;86.28
77279;BME280;66332;50.436;15.378;2023-03-14T05:43:42;96423.16;;;5.56;85.74
77279;BME280;66332;50.436;15.378;2023-03-14T05:48:23;96446.22;;;5.59;86.27
77279;BME280;66332;50.436;15.378;2023-03-14T05:53:04;96439.19;;;5.52;86.41
77279;BME280;66332;50.436;15.378;2023-03-14T05:57:45;96445.72;;;5.77;86.28
77279;BME280;66332;50.436;15.378;2023-03-14T06:02:26;96421.59;;;5.61;86.03
77279;BME280;66332;50.436;15.378;2023-03-14T06:07:06;96418.97;;;5.61;86.46
77279;BME280;66332;50.436;15.378;2023-03-14T06:11:47;96425.75;;;5.56;86.85
77279;BME280;66332;50.436;15.378;2023-03-14T06:16:28;96426.38;;;5.58;87.37
77279;BME280;66332;50.436;15.378;2023-03-14T06:21:09;96415.25;;;5.84;85.96
77279;BME280;66332;50.436;15.378;2023-03-14T06:25:50;96405.81;;;5.76;86.13
77279;BME280;66332;50.436;15.378;2023-03-14T06:30:31;96418.06;;;5.82;85.91
77279;BME280;66332;50.436;15.378;2023-03-14T06:35:12;96436.22;;;5.97;85.45
77279;BME280;66332;50.436;15.378;2023-03-14T06:39:53;96402.50;;;5.95;84.88
77279;BME280;66332;50.436;15.378;2023-03-14T06:44:37;96424.69;;;6.33;84.56
77279;BME280;66332;50.436;15.378;2023-03-14T06:49:43;96427.03;;;6.14;84.99
77279;BME280;66332;50.436;15.378;2023-03-14T06:54:42;96414.97;;;6.00;85.36
77279;BME280;66332;50.436;15.378;2023-03-14T06:59:50;96442.97;;;6.33;85.21
77279;BME280;66332;50.436;15.378;2023-03-14T07:04:31;96427.72;;;6.36;85.32
77279;BME280;66332;50.436;15.378;2023-03-14T07:09:12;96441.63;;;6.57;85.01
77279;BME280;66332;50.436;15.378;2023-03-14T07:13:53;96440.63;;;6.58;85.77
77279;BME280;66332;50.436;15.378;2023-03-14T07:18:34;96457.31;;;6.63;84.95
77279;BME280;66332;50.436;15.378;2023-03-14T07:23:15;96465.16;;;6.83;84.82
77279;BME280;66332;50.436;15.378;2023-03-14T07:27:56;96466.41;;;6.94;85.13
77279;BME280;66332;50.436;15.378;2023-03-14T07:32:37;96455.94;;;7.01;84.14
77279;BME280;66332;50.436;15.378;2023-03-14T07:37:18;96457.94;;;6.92;84.31
77279;BME280;66332;50.436;15.378;2023-03-14T07:41:59;96480.88;;;7.23;82.13
77279;BME280;66332;50.436;15.378;2023-03-14T07:46:40;96486.69;;;7.39;81.23
77279;BME280;66332;50.436;15.378;2023-03-14T07:51:21;96481.06;;;7.42;80.75
77279;BME280;66332;50.436;15.378;2023-03-14T07:56:02;96462.38;;;7.25;81.18
77279;BME280;66332;50.436;15.378;2023-03-14T08:00:43;96460.94;;;7.55;79.25
77279;BME280;66332;50.436;15.378;2023-03-14T08:05:24;96444.44;;;7.55;81.05
77279;BME280;66332;50.436;15.378;2023-03-14T08:10:06;96431.38;;;7.48;80.45
77279;BME280;66332;50.436;15.378;2023-03-14T08:14:47;96422.09;;;7.66;80.13
77279;BME280;66332;50.436;15.378;2023-03-14T08:19:28;96424.09;;;7.64;81.79
77279;BME280;66332;50.436;15.378;2023-03-14T08:24:09;96430.13;;;7.71;82.27
77279;BME280;66332;50.436;15.378;2023-03-14T08:28:50;96441.72;;;7.95;79.63
77279;BME280;66332;50.436;15.378;2023-03-14T08:33:31;96440.19;;;7.67;79.90
77279;BME280;66332;50.436;15.378;2023-03-14T08:38:12;96457.84;;;7.92;81.26
77279;BME280;66332;50.436;15.378;2023-03-14T08:42:53;96461.44;;;7.97;81.21
77279;BME280;66332;50.436;15.378;2023-03-14T08:47:34;96467.09;;;7.94;80.28
77279;BME280;66332;50.436;15.378;2023-03-14T08:52:15;96468.88;;;7.94;80.29
77279;BME280;66332;50.436;15.378;2023-03-14T08:56:57;96476.53;;;8.02;79.57
77279;BME280;66332;50.436;15.378;2023-03-14T09:01:38;96475.81;;;8.26;79.04
77279;BME280;66332;50.436;15.378;2023-03-14T09:06:19;96480.88;;;8.21;78.84
77279;BME280;66332;50.436;15.378;2023-03-14T09:11:00;96481.22;;;8.45;79.81
77279;BME280;66332;50.436;15.378;2023-03-14T09:15:40;96493.63;;;8.63;78.51
77279;BME280;66332;50.436;15.378;2023-03-14T09:20:23;96487.91;;;8.72;78.30
77279;BME280;66332;50.436;15.378;2023-03-14T09:25:07;96478.50;;;8.65;78.72
77279;BME280;66332;50.436;15.378;2023-03-14T09:29:48;96476.84;;;9.02;79.15
77279;BME280;66332;50.436;15.378;2023-03-14T09:34:29;96470.78;;;9.52;76.33
77279;BME280;66332;50.436;15.378;2023-03-14T09:39:13;96472.03;;;9.49;77.48
77279;BME280;66332;50.436;15.378;2023-03-14T09:44:04;96476.41;;;9.55;77.76
77279;BME280;66332;50.436;15.378;2023-03-14T09:48:46;96472.53;;;9.83;77.26
77279;BME280;66332;50.436;15.378;2023-03-14T09:53:39;96475.72;;;10.03;78.76
77279;BME280;66332;50.436;15.378;2023-03-14T09:58:22;96472.13;;;10.71;75.17
77279;BME280;66332;50.436;15.378;2023-03-14T10:07:53;96455.06;;;10.62;75.65
77279;BME280;66332;50.436;15.378;2023-03-14T10:12:37;96458.41;;;10.81;73.29
77279;BME280;66332;50.436;15.378;2023-03-14T10:17:20;96445.63;;;10.85;75.10
77279;BME280;66332;50.436;15.378;2023-03-14T10:22:04;96437.25;;;11.30;72.91
77279;BME280;66332;50.436;15.378;2023-03-14T10:26:52;96425.78;;;11.24;72.07
77279;BME280;66332;50.436;15.378;2023-03-14T10:32:02;96433.34;;;11.44;72.28
77279;BME280;66332;50.436;15.378;2023-03-14T10:36:44;96424.19;;;11.58;68.36
77279;BME280;66332;50.436;15.378;2023-03-14T10:41:25;96435.75;;;11.81;67.74
77279;BME280;66332;50.436;15.378;2023-03-14T10:46:14;96441.09;;;11.98;67.08
77279;BME280;66332;50.436;15.378;2023-03-14T10:51:09;96438.91;;;11.83;66.26
77279;BME280;66332;50.436;15.378;2023-03-14T10:55:50;96446.59;;;11.84;66.48
77279;BME280;66332;50.436;15.378;2023-03-14T11:00:31;96439.28;;;11.86;66.67
77279;BME280;66332;50.436;15.378;2023-03-14T11:10:35;96446.28;;;11.69;66.41
77279;BME280;66332;50.436;15.378;2023-03-14T11:15:34;96439.75;;;11.60;64.12
77279;BME280;66332;50.436;15.378;2023-03-14T11:20:35;96437.22;;;11.77;65.03
77279;BME280;66332;50.436;15.378;2023-03-14T11:30:24;96444.78;;;11.73;63.72
77279;BME280;66332;50.436;15.378;2023-03-14T11:35:23;96438.72;;;11.73;63.01
77279;BME280;66332;50.436;15.378;2023-03-14T11:44:46;96431.75;;;11.55;62.76
77279;BME280;66332;50.436;15.378;2023-03-14T12:09:35;96428.78;;;11.39;63.79
77279;BME280;66332;50.436;15.378;2023-03-14T12:14:28;96423.06;;;11.54;63.91
77279;BME280;66332;50.436;15.378;2023-03-14T12:19:21;96415.16;;;11.42;63.85
77279;BME280;66332;50.436;15.378;2023-03-14T12:24:24;96418.25;;;11.39;63.97
77279;BME280;66332;50.436;15.378;2023-03-14T12:29:25;96408.50;;;11.40;63.94
77279;BME280;66332;50.436;15.378;2023-03-14T12:38:58;96413.91;;;11.45;64.21
77279;BME280;66332;50.436;15.378;2023-03-14T12:43:42;96403.25;;;11.52;63.97
77279;BME280;66332;50.436;15.378;2023-03-14T12:48:23;96401.53;;;11.45;62.66
77279;BME280;66332;50.436;15.378;2023-03-14T12:58:28;96396.72;;;11.42;63.76
77279;BME280;66332;50.436;15.378;2023-03-14T13:03:18;96382.06;;;11.46;64.53
77279;BME280;66332;50.436;15.378;2023-03-14T13:12:57;96378.75;;;11.51;64.26
77279;BME280;66332;50.436;15.378;2023-03-14T13:17:41;96377.25;;;11.55;63.54
77279;BME280;66332;50.436;15.378;2023-03-14T13:22:32;96369.09;;;11.68;63.33
77279;BME280;66332;50.436;15.378;2023-03-14T13:27:18;96363.34;;;11.83;63.01
77279;BME280;66332;50.436;15.378;2023-03-14T13:32:16;96373.22;;;11.88;62.02
77279;BME280;66332;50.436;15.378;2023-03-14T13:36:57;96373.56;;;11.68;61.70
77279;BME280;66332;50.436;15.378;2023-03-14T13:41:39;96377.72;;;11.64;63.46
77279;BME280;66332;50.436;15.378;2023-03-14T13:46:22;96373.00;;;11.78;62.83
77279;BME280;66332;50.436;15.378;2023-03-14T13:51:10;96375.88;;;11.88;61.99
77279;BME280;66332;50.436;15.378;2023-03-14T13:55:53;96371.38;;;11.77;61.72
77279;BME280;66332;50.436;15.378;2023-03-14T14:00:34;96359.28;;;11.64;62.81
77279;BME280;66332;50.436;15.378;2023-03-14T14:05:15;96371.06;;;11.73;62.72
77279;BME280;66332;50.436;15.378;2023-03-14T14:09:57;96373.94;;;11.60;63.25
77279;BME280;66332;50.436;15.378;2023-03-14T14:15:23;96367.78;;;11.54;62.57
77279;BME280;66332;50.436;15.378;2023-03-14T14:19:45;96372.94;;;11.49;62.11
77279;BME280;66332;50.436;15.378;2023-03-14T14:24:30;96372.94;;;11.37;62.14
77279;BME280;66332;50.436;15.378;2023-03-14T14:29:23;96363.91;;;11.33;62.28
77279;BME280;66332;50.436;15.378;2023-03-14T14:34:19;96358.41;;;11.35;62.00
77279;BME280;66332;50.436;15.378;2023-03-14T14:43:52;96348.91;;;11.45;61.55
77279;BME280;66332;50.436;15.378;2023-03-14T14:48:36;96344.56;;;11.39;61.75
77279;BME280;66332;50.436;15.378;2023-03-14T14:58:39;96338.72;;;11.37;62.96
77279;BME280;66332;50.436;15.378;2023-03-14T15:03:26;96334.16;;;11.33;63.38
77279;BME280;66332;50.436;15.378;2023-03-14T15:08:09;96324.69;;;11.20;63.62
77279;BME280;66332;50.436;15.378;2023-03-14T15:12:51;96345.38;;;11.16;63.43
77279;BME280;66332;50.436;15.378;2023-03-14T15:17:32;96336.56;;;11.11;64.62
77279;BME280;66332;50.436;15.378;2023-03-14T15:22:13;96335.09;;;11.03;65.89
77279;BME280;66332;50.436;15.378;2023-03-14T15:27:05;96334.75;;;10.99;65.07
77279;BME280;66332;50.436;15.378;2023-03-14T15:31:46;96329.59;;;11.05;65.27
77279;BME280;66332;50.436;15.378;2023-03-14T15:36:33;96326.03;;;11.11;63.70
77279;BME280;66332;50.436;15.378;2023-03-14T15:41:27;96335.53;;;11.00;64.21
77279;BME280;66332;50.436;15.378;2023-03-14T15:46:09;96336.47;;;10.94;64.19
77279;BME280;66332;50.436;15.378;2023-03-14T15:50:51;96336.00;;;10.85;64.70
77279;BME280;66332;50.436;15.378;2023-03-14T15:55:33;96338.28;;;10.82;65.52
77279;BME280;66332;50.436;15.378;2023-03-14T16:00:18;96343.31;;;10.71;66.26
77279;BME280;66332;50.436;15.378;2023-03-14T16:05:00;96336.78;;;10.62;66.37
77279;BME280;66332;50.436;15.378;2023-03-14T16:09:44;96334.56;;;10.47;67.94
77279;BME280;66332;50.436;15.378;2023-03-14T16:14:32;96348.72;;;10.46;68.24
77279;BME280;66332;50.436;15.378;2023-03-14T16:19:14;96345.53;;;10.44;67.96
77279;BME280;66332;50.436;15.378;2023-03-14T16:23:59;96366.31;;;10.46;68.74
77279;BME280;66332;50.436;15.378;2023-03-14T16:33:45;96359.59;;;10.20;70.81
77279;BME280;66332;50.436;15.378;2023-03-14T16:38:27;96369.16;;;10.14;71.63
77279;BME280;66332;50.436;15.378;2023-03-14T16:43:09;96353.13;;;10.04;71.78
77279;BME280;66332;50.436;15.378;2023-03-14T16:47:58;96366.94;;;9.99;71.63
77279;BME280;66332;50.436;15.378;2023-03-14T16:52:40;96374.66;;;9.94;72.67
77279;BME280;66332;50.436;15.378;2023-03-14T16:57:22;96388.56;;;9.95;73.24
77279;BME280;66332;50.436;15.378;2023-03-14T17:02:03;96393.47;;;9.91;73.48
77279;BME280;66332;50.436;15.378;2023-03-14T17:06:45;96387.88;;;9.87;73.11
77279;BME280;66332;50.436;15.378;2023-03-14T17:11:26;96403.91;;;9.79;73.90
77279;BME280;66332;50.436;15.378;2023-03-14T17:16:08;96398.28;;;9.76;74.84
77279;BME280;66332;50.436;15.378;2023-03-14T17:20:51;96393.63;;;9.59;74.80
77279;BME280;66332;50.436;15.378;2023-03-14T17:25:32;96403.53;;;9.76;73.68
77279;BME280;66332;50.436;15.378;2023-03-14T17:30:17;96407.63;;;9.72;74.45
77279;BME280;66332;50.436;15.378;2023-03-14T17:34:58;96401.72;;;9.76;73.39
77279;BME280;66332;50.436;15.378;2023-03-14T17:39:39;96386.75;;;9.58;74.94
77279;BME280;66332;50.436;15.378;2023-03-14T17:44:20;96400.19;;;9.69;74.24
77279;BME280;66332;50.436;15.378;2023-03-14T17:49:08;96406.41;;;9.74;74.55
77279;BME280;66332;50.436;15.378;2023-03-14T17:53:49;96396.91;;;9.73;74.53
77279;BME280;66332;50.436;15.378;2023-03-14T17:58:30;96400.84;;;9.64;74.73
77279;BME280;66332;50.436;15.378;2023-03-14T18:03:15;96412.13;;;9.64;74.03
77279;BME280;66332;50.436;15.378;2023-03-14T18:07:57;96409.03;;;9.56;73.56
77279;BME280;66332;50.436;15.378;2023-03-14T18:12:40;96430.81;;;9.75;72.26
77279;BME280;66332;50.436;15.378;2023-03-14T18:17:22;96470.44;;;9.48;76.06
77279;BME280;66332;50.436;15.378;2023-03-14T18:22:07;96508.31;;;9.02;79.80
77279;BME280;66332;50.436;15.378;2023-03-14T18:26:49;96504.84;;;8.77;80.78
77279;BME280;66332;50.436;15.378;2023-03-14T18:31:31;96530.72;;;8.60;83.02
77279;BME280;66332;50.436;15.378;2023-03-14T18:36:14;96548.50;;;8.38;85.52
77279;BME280;66332;50.436;15.378;2023-03-14T18:40:55;96570.47;;;8.30;86.22
77279;BME280;66332;50.436;15.378;2023-03-14T18:45:42;96585.38;;;8.30;87.43
77279;BME280;66332;50.436;15.378;2023-03-14T18:50:23;96657.03;;;7.35;81.83
77279;BME280;66332;50.436;15.378;2023-03-14T18:55:04;96641.94;;;6.00;82.88
77279;BME280;66332;50.436;15.378;2023-03-14T18:59:45;96679.09;;;5.87;83.21
77279;BME280;66332;50.436;15.378;2023-03-14T19:04:29;96680.38;;;5.70;84.10
77279;BME280;66332;50.436;15.378;2023-03-14T19:09:20;96699.47;;;5.56;84.62
77279;BME280;66332;50.436;15.378;2023-03-14T19:14:01;96724.91;;;5.53;85.46
77279;BME280;66332;50.436;15.378;2023-03-14T19:18:43;96723.69;;;5.49;84.25
77279;BME280;66332;50.436;15.378;2023-03-14T19:23:25;96751.13;;;5.45;83.17
77279;BME280;66332;50.436;15.378;2023-03-14T19:28:09;96761.84;;;5.36;83.25
77279;BME280;66332;50.436;15.378;2023-03-14T19:33:00;96785.31;;;5.21;83.34
77279;BME280;66332;50.436;15.378;2023-03-14T19:37:41;96847.19;;;5.04;83.74
77279;BME280;66332;50.436;15.378;2023-03-14T19:42:22;96856.56;;;4.37;79.57
77279;BME280;66332;50.436;15.378;2023-03-14T19:47:03;96903.31;;;3.60;79.21
77279;BME280;66332;50.436;15.378;2023-03-14T19:51:45;96928.75;;;3.17;80.48
77279;BME280;66332;50.436;15.378;2023-03-14T19:56:26;96972.91;;;3.01;80.98
77279;BME280;66332;50.436;15.378;2023-03-14T20:01:12;97011.34;;;2.73;81.34
77279;BME280;66332;50.436;15.378;2023-03-14T20:05:57;97002.25;;;2.69;81.45
77279;BME280;66332;50.436;15.378;2023-03-14T20:10:44;97005.31;;;2.48;80.47
77279;BME280;66332;50.436;15.378;2023-03-14T20:15:27;97039.53;;;2.51;79.89
77279;BME280;66332;50.436;15.378;2023-03-14T20:20:09;97050.53;;;2.45;79.97
77279;BME280;66332;50.436;15.378;2023-03-14T20:24:50;97079.03;;;2.37;79.02
77279;BME280;66332;50.436;15.378;2023-03-14T20:29:32;97093.78;;;2.37;77.95
77279;BME280;66332;50.436;15.378;2023-03-14T20:34:13;97099.25;;;2.25;78.17
77279;BME280;66332;50.436;15.378;2023-03-14T20:38:54;97106.06;;;2.26;78.37
77279;BME280;66332;50.436;15.378;2023-03-14T20:43:35;97105.13;;;2.36;77.68
77279;BME280;66332;50.436;15.378;2023-03-14T20:48:22;97135.41;;;2.27;77.80
77279;BME280;66332;50.436;15.378;2023-03-14T20:53:14;97134.94;;;2.32;78.71
77279;BME280;66332;50.436;15.378;2023-03-14T20:57:55;97138.47;;;2.22;77.72
77279;BME280;66332;50.436;15.378;2023-03-14T21:02:42;97155.69;;;2.32;79.30
77279;BME280;66332;50.436;15.378;2023-03-14T21:07:54;97185.34;;;2.29;79.48
77279;BME280;66332;50.436;15.378;2023-03-14T21:12:36;97187.94;;;2.29;80.64
77279;BME280;66332;50.436;15.378;2023-03-14T21:17:17;97201.09;;;2.36;80.76
77279;BME280;66332;50.436;15.378;2023-03-14T21:22:00;97221.34;;;2.32;80.56
77279;BME280;66332;50.436;15.378;2023-03-14T21:26:42;97224.50;;;2.44;80.05
77279;BME280;66332;50.436;15.378;2023-03-14T21:31:25;97249.06;;;2.32;78.89
77279;BME280;66332;50.436;15.378;2023-03-14T21:36:14;97282.63;;;2.33;78.20
77279;BME280;66332;50.436;15.378;2023-03-14T21:40:59;97303.84;;;2.28;78.09
77279;BME280;66332;50.436;15.378;2023-03-14T21:45:53;97302.63;;;2.41;77.99
77279;BME280;66332;50.436;15.378;2023-03-14T21:50:52;97293.22;;;2.22;75.83
77279;BME280;66332;50.436;15.378;2023-03-14T21:55:45;97333.19;;;2.29;75.62
77279;BME280;66332;50.436;15.378;2023-03-14T22:00:27;97347.03;;;2.38;74.97
77279;BME280;66332;50.436;15.378;2023-03-14T22:05:18;97356.13;;;2.42;75.18
77279;BME280;66332;50.436;15.378;2023-03-14T22:10:00;97371.31;;;2.37;75.35
77279;BME280;66332;50.436;15.378;2023-03-14T22:19:30;97344.34;;;1.94;76.04
77279;BME280;66332;50.436;15.378;2023-03-14T22:24:31;97360.13;;;2.36;75.21
77279;BME280;66332;50.436;15.378;2023-03-14T22:29:23;97347.56;;;2.23;74.51
77279;BME280;66332;50.436;15.378;2023-03-14T22:34:09;97335.69;;;2.03;75.20
77279;BME280;66332;50.436;15.378;2023-03-14T22:38:55;97354.31;;;1.89;75.37
77279;BME280;66332;50.436;15.378;2023-03-14T22:43:39;97366.94;;;1.83;74.98
77279;BME280;66332;50.436;15.378;2023-03-14T22:48:20;97387.81;;;1.54;75.34
77279;BME280;66332;50.436;15.378;2023-03-14T22:53:02;97380.13;;;1.63;76.34
